Aeroporto :
LOGIN :

Iscrizione | Disclaimer

   EN    FR    IT 

 










Sommario :    VFR   VFR Marginale   IFR   IFR Intensivo   IFR Molto Intensivo
Visibilità : 
Base nubi : 
>= 8 km
>= 3000ft
5 / 8 km
1000 / 3000 ft
1500m / 5 km
500 / 1000 ft
800 / 1500m
200 / 500 ft
< 800m
< 200 ft
Simboli :   Temporali  Nebbia  Neve Forte  Precipitazioni Forti  Vento > 20 kt
SIGMETs :   Varie  Temporali  Ghiacco  Turbolenza  Onda orograficha  Ceneri Vulcaniche







- Altitudine del aeroporto : 157 ft
- Codice IATA : SXF


EDDB - Berlin Schönefeld

ULTIMO METAR :
  • 210050Z 06005KT 4600 R07L/0500V0800D BCFG BR NSC 13/13 Q1002 TEMPO 2500 BCFG

METARs OBSOLETI :
  • 210020Z 05004KT 4600 BCFG BR NSC 13/13 Q1002 TEMPO 2500 BCFG
  • 202350Z 05004KT 3800 BCFG BR NSC 13/13 Q1002 TEMPO 2500 BCFG
  • 202320Z 05003KT 2300 1000SE R07L/0750VP2000U R07R/P2000N BCFG BR NSC 13/13 Q1002 TEMPO 0500 FG
  • 202250Z 06003KT 2100 1000SE R07L/P2000N R07R/P2000N BCFG BR NSC 14/14 Q1002 TEMPO 0500 FG
  • 202220Z 07004KT CAVOK 14/14 Q1002 NOSIG

TAF TAF EDDB
Valido dal 21 a 00 ore il 22 a 00 ore UTC


202300Z 2100/2124 09005KT 3000 BCFG NSC
TEMPO 2100/2105 0400 FG OVC002
BECMG 2105/2108 CAVOK
BECMG 2110/2112 01004KT
BECMG 2115/2117 31005KT
PROB30
TEMPO 2118/2124 SHRA BKN030CB
Nessun NOTAM noto per questo aeroporto.



MetMap, La meteo Aeronautica in un colpo d'occhio ! - Copyright ORBIFLY Dicembre 2007 - Disclaimer

ORBIFLY MET'MAP TEAM :

Programmazione e sviluppo : Alexandra Zaïnal
Concezione e sviluppo : Baudouin d'Aumeries
Co-Programmazione e sviluppo : Marc-Olivier Méhu
Supporto tecnico e logistico : Manuel Goepfert
Aiuto per la traduzione : Arnaldo La Scala

Contatto : metmap@orbifly.com




FONTI E CREDITI :

   NOAA